createdAt,value
2023-05-13T00:00:19.597Z,6.76
2023-05-13T00:02:46.373Z,6.73
2023-05-13T00:05:13.008Z,6.72
2023-05-13T00:07:41.515Z,6.72
2023-05-13T00:10:08.575Z,6.68
2023-05-13T00:12:35.098Z,6.58
2023-05-13T00:15:01.650Z,6.45
2023-05-13T00:17:28.210Z,6.36
2023-05-13T00:19:54.792Z,6.34
2023-05-13T00:22:21.377Z,6.34
2023-05-13T00:24:47.963Z,6.34
2023-05-13T00:27:14.485Z,6.32
2023-05-13T00:29:40.995Z,6.33
2023-05-13T00:32:07.691Z,6.36
2023-05-13T00:34:34.984Z,6.43
2023-05-13T00:37:01.523Z,6.48
2023-05-13T00:39:29.333Z,6.50
2023-05-13T00:41:56.282Z,6.48
2023-05-13T00:44:22.827Z,6.45
2023-05-13T00:46:49.930Z,6.42
2023-05-13T00:49:16.510Z,6.36
2023-05-13T00:51:43.284Z,6.31
2023-05-13T00:54:09.816Z,6.28
2023-05-13T00:56:39.067Z,6.27
2023-05-13T00:59:05.683Z,6.26
2023-05-13T01:02:09.453Z,6.26
2023-05-13T01:04:42.112Z,6.24
2023-05-13T01:07:29.629Z,6.22
2023-05-13T01:10:02.474Z,6.20
2023-05-13T01:12:47.091Z,6.19
2023-05-13T01:15:22.158Z,6.17
2023-05-13T01:17:57.408Z,6.11
2023-05-13T01:20:24.835Z,6.03
2023-05-13T01:22:51.387Z,5.95
2023-05-13T01:25:18.387Z,5.86
2023-05-13T01:27:45.288Z,5.82
2023-05-13T01:30:12.904Z,5.79
2023-05-13T01:32:40.271Z,5.76
2023-05-13T01:35:09.486Z,5.76
2023-05-13T01:37:38.903Z,5.77
2023-05-13T01:40:17.195Z,5.76
2023-05-13T01:42:51.464Z,5.69
2023-05-13T01:45:18.331Z,5.64
2023-05-13T01:47:45.044Z,5.64
2023-05-13T01:50:11.823Z,5.64
2023-05-13T01:52:40.460Z,5.64
2023-05-13T01:55:07.582Z,5.64
2023-05-13T01:57:34.261Z,5.64
2023-05-13T02:00:00.878Z,5.66
2023-05-13T02:02:27.434Z,5.70
2023-05-13T02:04:55.478Z,5.73
2023-05-13T02:07:22.625Z,5.70
2023-05-13T02:09:50.162Z,5.65
2023-05-13T02:12:16.682Z,5.59
2023-05-13T02:14:43.256Z,5.55
2023-05-13T02:17:15.307Z,5.57
2023-05-13T02:19:42.175Z,5.65
2023-05-13T02:22:08.793Z,5.74
2023-05-13T02:24:36.172Z,5.81
2023-05-13T02:27:03.118Z,5.80
2023-05-13T02:29:29.770Z,5.80
2023-05-13T02:31:56.420Z,5.85
2023-05-13T02:34:23.093Z,5.90
2023-05-13T02:36:49.722Z,5.97
2023-05-13T02:39:16.359Z,6.05
2023-05-13T02:41:44.420Z,6.12
2023-05-13T02:44:11.408Z,6.19
2023-05-13T02:46:37.991Z,6.28
2023-05-13T02:49:04.881Z,6.38
2023-05-13T02:51:32.603Z,6.48
2023-05-13T02:53:59.158Z,6.57
2023-05-13T02:56:26.217Z,6.65
2023-05-13T02:58:52.798Z,6.70
2023-05-13T03:01:19.442Z,6.75
2023-05-13T03:03:46.278Z,6.78
2023-05-13T03:06:12.857Z,6.81
2023-05-13T03:08:39.389Z,6.82
2023-05-13T03:11:06.060Z,6.81
2023-05-13T03:13:32.686Z,6.70
2023-05-13T03:15:59.182Z,6.59
2023-05-13T03:18:25.948Z,6.53
2023-05-13T03:20:53.439Z,6.51
2023-05-13T03:23:20.008Z,6.52
2023-05-13T03:25:47.302Z,6.55
2023-05-13T03:28:13.938Z,6.59
2023-05-13T03:30:43.473Z,6.61
2023-05-13T03:33:14.012Z,6.63
2023-05-13T03:35:40.749Z,6.64
2023-05-13T03:38:07.642Z,6.65
2023-05-13T03:40:35.965Z,6.67
2023-05-13T03:43:02.469Z,6.69
2023-05-13T03:45:29.291Z,6.73
2023-05-13T03:47:58.380Z,6.76
2023-05-13T03:50:25.238Z,6.81
2023-05-13T03:52:51.992Z,6.89
2023-05-13T03:55:18.866Z,6.98
2023-05-13T03:57:48.458Z,7.05
2023-05-13T04:00:16.759Z,7.13
2023-05-13T04:02:43.773Z,7.21
2023-05-13T04:05:11.615Z,7.29
2023-05-13T04:07:38.197Z,7.36
2023-05-13T04:10:05.416Z,7.46
2023-05-13T04:12:33.340Z,7.59
2023-05-13T04:15:00.642Z,7.74
2023-05-13T04:17:27.766Z,7.88
2023-05-13T04:19:54.932Z,8.03
2023-05-13T04:22:21.837Z,8.20
2023-05-13T04:24:52.016Z,8.41
2023-05-13T04:27:18.747Z,8.62
2023-05-13T04:29:45.763Z,8.77
2023-05-13T04:32:16.166Z,8.89
2023-05-13T04:34:43.381Z,9.05
2023-05-13T04:37:09.956Z,9.23
2023-05-13T04:39:36.464Z,9.46
2023-05-13T04:42:03.136Z,9.75
2023-05-13T04:44:29.903Z,9.98
2023-05-13T04:46:56.396Z,10.20
2023-05-13T04:49:23.076Z,10.41
2023-05-13T04:51:50.381Z,10.59
2023-05-13T04:54:18.274Z,10.75
2023-05-13T04:56:45.013Z,10.91
2023-05-13T04:59:11.616Z,11.09
2023-05-13T05:01:38.698Z,11.25
2023-05-13T05:04:06.240Z,11.41
2023-05-13T05:06:34.082Z,11.54
2023-05-13T05:09:01.168Z,11.65
2023-05-13T05:11:27.746Z,11.77
2023-05-13T05:13:54.324Z,11.89
2023-05-13T05:16:20.982Z,11.99
2023-05-13T05:18:48.147Z,12.09
2023-05-13T05:21:18.054Z,12.23
2023-05-13T05:23:44.576Z,12.43
2023-05-13T05:26:12.366Z,12.69
2023-05-13T05:28:43.191Z,12.94
2023-05-13T05:31:10.108Z,13.10
2023-05-13T05:33:37.516Z,13.22
2023-05-13T05:36:06.737Z,13.33
2023-05-13T05:38:34.417Z,13.43
2023-05-13T05:41:01.214Z,13.52
2023-05-13T05:43:28.004Z,13.58
2023-05-13T05:45:54.572Z,13.67
2023-05-13T05:48:22.022Z,13.85
2023-05-13T05:50:49.306Z,14.06
2023-05-13T05:53:22.457Z,14.21
2023-05-13T05:55:51.075Z,14.23
2023-05-13T05:58:18.927Z,14.24
2023-05-13T06:00:45.713Z,14.30
2023-05-13T06:03:12.424Z,14.42
2023-05-13T06:05:39.282Z,14.57
2023-05-13T06:08:05.862Z,14.73
2023-05-13T06:10:32.424Z,14.84
2023-05-13T06:12:59.022Z,14.99
2023-05-13T06:15:25.713Z,15.15
2023-05-13T06:17:52.316Z,15.31
2023-05-13T06:20:19.105Z,15.43
2023-05-13T06:22:45.835Z,15.47
2023-05-13T06:25:12.425Z,15.56
2023-05-13T06:27:40.677Z,15.73
2023-05-13T06:30:07.752Z,16.00
2023-05-13T06:32:34.428Z,16.34
2023-05-13T06:35:01.003Z,16.55
2023-05-13T06:37:28.044Z,16.61
2023-05-13T06:39:54.791Z,16.74
2023-05-13T06:42:21.526Z,16.85
2023-05-13T06:44:55.332Z,16.96
2023-05-13T06:47:27.142Z,17.16
2023-05-13T06:49:53.702Z,17.56
2023-05-13T06:52:20.282Z,18.25
2023-05-13T06:54:47.022Z,19.07
2023-05-13T06:57:13.624Z,19.99
2023-05-13T06:59:40.150Z,20.94
2023-05-13T07:02:09.686Z,22.01
2023-05-13T07:04:37.036Z,23.18
2023-05-13T07:07:03.668Z,24.10
2023-05-13T07:09:30.285Z,24.81
2023-05-13T07:11:56.972Z,25.57
2023-05-13T07:14:25.300Z,26.31
2023-05-13T07:16:51.911Z,27.16
2023-05-13T07:19:18.633Z,28.02
2023-05-13T07:21:45.264Z,28.79
2023-05-13T07:24:11.903Z,28.95
2023-05-13T07:26:39.130Z,29.42
2023-05-13T07:29:06.180Z,30.20
2023-05-13T07:31:32.824Z,30.68
2023-05-13T07:33:59.650Z,31.17
2023-05-13T07:36:26.492Z,31.73
2023-05-13T07:38:53.534Z,32.21
2023-05-13T07:41:20.320Z,32.48
2023-05-13T07:43:47.083Z,32.86
2023-05-13T07:46:13.712Z,33.52
2023-05-13T07:48:40.203Z,33.87
2023-05-13T07:51:07.002Z,34.04
2023-05-13T07:53:33.848Z,34.27
2023-05-13T07:56:00.707Z,34.50
2023-05-13T07:58:27.225Z,34.66
2023-05-13T08:00:53.920Z,34.55
2023-05-13T08:03:20.536Z,34.22
2023-05-13T08:05:48.092Z,34.44
2023-05-13T08:08:14.744Z,34.55
2023-05-13T08:10:41.279Z,35.08
2023-05-13T08:13:07.864Z,35.51
2023-05-13T08:15:34.420Z,35.47
2023-05-13T08:18:01.092Z,35.27
2023-05-13T08:20:30.011Z,35.25
2023-05-13T08:22:58.197Z,34.87
2023-05-13T08:25:25.290Z,34.54
2023-05-13T08:27:51.967Z,34.61
2023-05-13T08:30:18.549Z,34.59
2023-05-13T08:32:45.497Z,34.14
2023-05-13T08:35:12.134Z,33.68
2023-05-13T08:37:38.673Z,33.57
2023-05-13T08:40:08.328Z,32.86
2023-05-13T08:42:38.338Z,32.83
2023-05-13T08:45:05.755Z,32.88
2023-05-13T08:47:55.706Z,33.31
2023-05-13T08:50:22.736Z,33.93
2023-05-13T08:52:53.972Z,34.41
2023-05-13T08:55:21.516Z,33.90
2023-05-13T08:57:48.243Z,33.58
2023-05-13T09:00:15.085Z,33.39
2023-05-13T09:02:41.964Z,33.16
2023-05-13T09:05:10.169Z,32.10
2023-05-13T09:07:38.085Z,31.18
2023-05-13T09:10:06.201Z,31.88
2023-05-13T09:12:41.944Z,31.95
2023-05-13T09:15:09.879Z,31.08
2023-05-13T09:17:42.522Z,30.97
2023-05-13T09:20:11.188Z,30.86
2023-05-13T09:22:52.951Z,29.91
2023-05-13T09:25:24.106Z,28.93
2023-05-13T09:27:57.758Z,29.21
2023-05-13T09:30:29.272Z,28.83
2023-05-13T09:33:11.053Z,28.27
2023-05-13T09:35:43.311Z,27.84
2023-05-13T09:38:17.824Z,27.42
2023-05-13T09:40:58.754Z,26.87
2023-05-13T09:43:30.770Z,26.38
2023-05-13T09:46:01.282Z,26.02
2023-05-13T09:48:29.835Z,25.72
2023-05-13T09:50:58.267Z,25.38
2023-05-13T09:53:28.626Z,25.58
2023-05-13T09:55:57.707Z,26.79
2023-05-13T09:58:28.131Z,28.30
2023-05-13T10:00:55.512Z,29.47
2023-05-13T10:03:22.508Z,29.93
2023-05-13T10:05:50.110Z,29.89
2023-05-13T10:08:18.264Z,29.79
2023-05-13T10:10:47.014Z,29.53
2023-05-13T10:13:19.332Z,29.45
2023-05-13T10:15:51.562Z,30.16
2023-05-13T10:18:20.142Z,30.73
2023-05-13T10:20:47.806Z,30.79
2023-05-13T10:23:14.472Z,30.71
2023-05-13T10:25:42.783Z,31.28
2023-05-13T10:28:10.645Z,32.07
2023-05-13T10:30:38.876Z,31.42
2023-05-13T10:33:05.845Z,30.35
2023-05-13T10:35:38.592Z,29.90
2023-05-13T10:38:15.625Z,29.58
2023-05-13T10:40:54.051Z,28.95
2023-05-13T10:43:22.145Z,28.19
2023-05-13T10:45:50.983Z,27.76
2023-05-13T10:48:18.866Z,27.35
2023-05-13T10:50:57.093Z,27.44
2023-05-13T10:53:26.020Z,28.13
2023-05-13T10:55:57.263Z,28.64
2023-05-13T10:58:39.774Z,28.46
2023-05-13T11:01:17.904Z,27.82
2023-05-13T11:03:56.811Z,27.09
2023-05-13T11:06:29.312Z,26.36
2023-05-13T11:08:56.344Z,25.71
2023-05-13T11:11:23.002Z,25.94
2023-05-13T11:13:54.835Z,26.29
2023-05-13T11:16:23.158Z,26.45
2023-05-13T11:18:51.783Z,26.41
2023-05-13T11:21:30.105Z,26.02
2023-05-13T11:23:59.096Z,25.91
2023-05-13T11:26:25.675Z,26.34
2023-05-13T11:28:59.788Z,26.09
2023-05-13T11:31:28.416Z,25.48
2023-05-13T11:34:15.050Z,25.53
2023-05-13T11:36:44.768Z,25.62
2023-05-13T11:39:20.261Z,25.48
2023-05-13T11:41:51.520Z,25.04
2023-05-13T11:44:20.820Z,24.65
2023-05-13T11:46:58.730Z,24.75
2023-05-13T11:49:42.818Z,25.20
2023-05-13T11:52:13.347Z,25.31
2023-05-13T11:54:44.342Z,25.54
2023-05-13T11:57:17.192Z,26.04
2023-05-13T12:00:06.863Z,26.94
2023-05-13T12:02:37.453Z,27.67
2023-05-13T12:05:06.310Z,28.04
2023-05-13T12:07:34.179Z,27.99
2023-05-13T12:10:03.853Z,27.97
2023-05-13T12:12:32.922Z,28.00
2023-05-13T12:15:01.901Z,27.82
2023-05-13T12:17:29.062Z,27.77
2023-05-13T12:20:12.862Z,27.36
2023-05-13T12:22:42.510Z,26.69
2023-05-13T12:25:27.652Z,25.96
2023-05-13T12:28:21.707Z,25.33
2023-05-13T12:30:56.872Z,25.06
2023-05-13T12:33:31.408Z,25.59
2023-05-13T12:36:35.891Z,26.25
2023-05-13T12:39:10.863Z,26.39
2023-05-13T12:41:39.312Z,26.58
2023-05-13T12:44:15.136Z,26.92
2023-05-13T12:46:52.850Z,27.47
2023-05-13T12:49:19.835Z,27.48
2023-05-13T12:51:46.479Z,27.49
2023-05-13T12:54:13.226Z,27.71
2023-05-13T12:56:42.773Z,27.93
2023-05-13T12:59:09.251Z,27.91
2023-05-13T13:01:37.239Z,27.90
2023-05-13T13:04:04.059Z,27.79
2023-05-13T13:06:32.372Z,27.68
2023-05-13T13:08:59.054Z,27.72
2023-05-13T13:11:25.667Z,27.82
2023-05-13T13:13:52.172Z,28.29
2023-05-13T13:16:19.028Z,28.45
2023-05-13T13:18:45.769Z,28.23
2023-05-13T13:21:12.549Z,27.81
2023-05-13T13:23:39.387Z,27.24
2023-05-13T13:26:05.989Z,26.75
2023-05-13T13:28:32.676Z,26.29
2023-05-13T13:30:59.953Z,25.88
2023-05-13T13:33:26.659Z,25.37
2023-05-13T13:35:53.424Z,24.81
2023-05-13T13:38:19.976Z,24.33
2023-05-13T13:40:46.633Z,23.83
2023-05-13T13:43:13.245Z,23.62
2023-05-13T13:45:40.058Z,23.71
2023-05-13T13:48:06.988Z,23.95
2023-05-13T13:50:34.004Z,24.01
2023-05-13T13:53:00.590Z,23.98
2023-05-13T13:55:27.112Z,23.88
2023-05-13T13:57:53.743Z,23.66
2023-05-13T14:00:20.806Z,23.68
2023-05-13T14:02:48.354Z,23.73
2023-05-13T14:05:15.954Z,23.73
2023-05-13T14:07:42.637Z,23.84
2023-05-13T14:10:09.923Z,23.99
2023-05-13T14:12:37.322Z,24.12
2023-05-13T14:15:04.245Z,24.24
2023-05-13T14:17:30.953Z,24.29
2023-05-13T14:19:57.558Z,24.35
2023-05-13T14:22:24.521Z,24.49
2023-05-13T14:24:54.098Z,24.63
2023-05-13T14:27:21.621Z,24.67
2023-05-13T14:29:49.090Z,24.66
2023-05-13T14:32:16.215Z,24.49
2023-05-13T14:34:43.114Z,21.82
2023-05-13T14:37:09.778Z,17.95
2023-05-13T14:39:36.926Z,16.47
2023-05-13T14:42:03.988Z,16.42
2023-05-13T14:44:30.628Z,16.36
2023-05-13T14:46:57.291Z,15.76
2023-05-13T14:49:23.997Z,15.65
2023-05-13T14:51:50.730Z,15.55
2023-05-13T14:54:17.861Z,15.48
2023-05-13T14:56:45.053Z,15.46
2023-05-13T14:59:11.824Z,15.44
2023-05-13T15:01:38.705Z,15.43
2023-05-13T15:04:05.866Z,15.41
2023-05-13T15:06:32.883Z,15.56
2023-05-13T15:08:59.596Z,15.76
2023-05-13T15:11:30.558Z,15.90
2023-05-13T15:13:57.122Z,16.01
2023-05-13T15:16:23.846Z,16.10
2023-05-13T15:18:50.772Z,16.19
2023-05-13T15:21:17.854Z,16.40
2023-05-13T15:23:44.652Z,16.55
2023-05-13T15:26:11.407Z,16.75
2023-05-13T15:28:37.987Z,17.04
2023-05-13T15:31:05.700Z,17.28
2023-05-13T15:33:35.760Z,17.52
2023-05-13T15:36:02.466Z,17.83
2023-05-13T15:38:29.018Z,18.24
2023-05-13T15:40:55.538Z,18.62
2023-05-13T15:43:22.180Z,18.87
2023-05-13T15:45:50.052Z,19.03
2023-05-13T15:48:17.479Z,19.16
2023-05-13T15:50:44.631Z,19.27
2023-05-13T15:53:11.211Z,19.39
2023-05-13T15:55:39.368Z,19.51
2023-05-13T15:58:06.881Z,19.59
2023-05-13T16:00:33.664Z,19.67
2023-05-13T16:03:00.700Z,19.73
2023-05-13T16:05:27.392Z,19.80
2023-05-13T16:07:54.269Z,19.86
2023-05-13T16:10:21.023Z,19.92
2023-05-13T16:12:47.638Z,19.98
2023-05-13T16:15:14.264Z,20.04
2023-05-13T16:17:40.960Z,20.09
2023-05-13T16:20:10.134Z,20.18
2023-05-13T16:22:38.246Z,20.27
2023-05-13T16:25:09.992Z,20.34
2023-05-13T16:27:37.965Z,20.40
2023-05-13T16:30:07.220Z,20.48
2023-05-13T16:32:34.925Z,20.53
2023-05-13T16:35:02.123Z,20.59
2023-05-13T16:37:29.088Z,20.65
2023-05-13T16:39:55.727Z,20.69
2023-05-13T16:42:22.556Z,20.72
2023-05-13T16:44:49.305Z,20.77
2023-05-13T16:47:15.917Z,20.82
2023-05-13T16:49:42.709Z,20.87
2023-05-13T16:52:09.337Z,20.84
2023-05-13T16:54:36.013Z,20.65
2023-05-13T16:57:02.725Z,20.40
2023-05-13T16:59:29.378Z,20.19
2023-05-13T17:01:56.139Z,19.99
2023-05-13T17:04:22.837Z,19.80
2023-05-13T17:06:49.566Z,19.63
2023-05-13T17:09:16.412Z,19.46
2023-05-13T17:11:43.342Z,19.29
2023-05-13T17:14:10.109Z,19.12
2023-05-13T17:16:37.090Z,18.94
2023-05-13T17:19:03.920Z,18.76
2023-05-13T17:21:30.503Z,18.60
2023-05-13T17:23:57.001Z,18.46
2023-05-13T17:26:23.570Z,18.29
2023-05-13T17:28:50.275Z,18.16
2023-05-13T17:31:16.923Z,18.02
2023-05-13T17:33:43.887Z,17.89
2023-05-13T17:36:10.950Z,17.79
2023-05-13T17:38:38.138Z,17.71
2023-05-13T17:41:04.987Z,17.64
2023-05-13T17:43:31.554Z,17.55
2023-05-13T17:45:58.502Z,17.44
2023-05-13T17:48:26.861Z,17.31
2023-05-13T17:50:53.784Z,17.16
2023-05-13T17:53:20.921Z,17.02
2023-05-13T17:55:48.634Z,16.89
2023-05-13T17:58:18.216Z,16.76
2023-05-13T18:00:44.823Z,16.64
2023-05-13T18:03:11.418Z,16.52
2023-05-13T18:05:38.141Z,16.40
2023-05-13T18:08:04.977Z,16.29
2023-05-13T18:10:31.527Z,16.19
2023-05-13T18:12:58.091Z,16.08
2023-05-13T18:15:24.672Z,15.97
2023-05-13T18:17:51.282Z,15.86
2023-05-13T18:20:18.562Z,15.76
2023-05-13T18:22:45.270Z,15.64
2023-05-13T18:25:11.992Z,15.50
2023-05-13T18:27:38.533Z,15.37
2023-05-13T18:30:06.642Z,15.26
2023-05-13T18:32:33.154Z,15.14
2023-05-13T18:34:59.944Z,14.97
2023-05-13T18:37:26.677Z,14.82
2023-05-13T18:39:53.371Z,14.70
2023-05-13T18:42:19.995Z,14.59
2023-05-13T18:44:46.613Z,14.46
2023-05-13T18:47:13.223Z,14.32
2023-05-13T18:49:40.066Z,14.18
2023-05-13T18:52:06.969Z,14.06
2023-05-13T18:54:33.606Z,13.94
2023-05-13T18:57:00.446Z,13.79
2023-05-13T18:59:28.163Z,13.67
2023-05-13T19:01:54.998Z,13.58
2023-05-13T19:04:22.184Z,13.50
2023-05-13T19:06:48.925Z,13.44
2023-05-13T19:09:16.520Z,13.39
2023-05-13T19:11:44.005Z,13.32
2023-05-13T19:14:10.550Z,13.24
2023-05-13T19:16:37.114Z,13.15
2023-05-13T19:19:03.728Z,13.03
2023-05-13T19:21:30.851Z,12.90
2023-05-13T19:23:58.528Z,12.76
2023-05-13T19:26:25.293Z,12.62
2023-05-13T19:28:52.179Z,12.54
2023-05-13T19:31:18.838Z,12.46
2023-05-13T19:33:46.372Z,12.39
2023-05-13T19:36:13.371Z,12.34
2023-05-13T19:38:40.003Z,12.28
2023-05-13T19:41:06.616Z,12.22
2023-05-13T19:43:33.183Z,12.15
2023-05-13T19:45:59.905Z,12.07
2023-05-13T19:48:28.353Z,11.97
2023-05-13T19:50:57.814Z,11.82
2023-05-13T19:53:24.774Z,11.74
2023-05-13T19:55:52.544Z,11.67
2023-05-13T19:58:19.096Z,11.59
2023-05-13T20:00:46.263Z,11.52
2023-05-13T20:03:13.513Z,11.47
2023-05-13T20:05:43.589Z,11.42
2023-05-13T20:08:10.087Z,11.36
2023-05-13T20:10:36.849Z,11.26
2023-05-13T20:13:07.241Z,11.20
2023-05-13T20:15:33.950Z,11.15
2023-05-13T20:18:00.811Z,11.08
2023-05-13T20:20:27.578Z,11.00
2023-05-13T20:22:57.150Z,10.95
2023-05-13T20:25:23.935Z,10.90
2023-05-13T20:27:51.357Z,10.83
2023-05-13T20:30:18.373Z,10.74
2023-05-13T20:32:45.107Z,10.72
2023-05-13T20:35:11.900Z,10.71
2023-05-13T20:37:38.729Z,10.68
2023-05-13T20:40:07.999Z,10.62
2023-05-13T20:42:34.781Z,10.57
2023-05-13T20:45:01.640Z,10.52
2023-05-13T20:47:28.578Z,10.40
2023-05-13T20:49:55.369Z,10.34
2023-05-13T20:52:22.281Z,10.32
2023-05-13T20:54:48.906Z,10.29
2023-05-13T20:57:15.914Z,10.25
2023-05-13T20:59:42.701Z,10.22
2023-05-13T21:02:09.482Z,10.20
2023-05-13T21:04:36.118Z,10.16
2023-05-13T21:07:04.966Z,10.10
2023-05-13T21:09:31.665Z,10.03
2023-05-13T21:11:58.356Z,9.98
2023-05-13T21:14:25.121Z,9.92
2023-05-13T21:16:51.814Z,9.88
2023-05-13T21:19:27.504Z,9.83
2023-05-13T21:21:54.065Z,9.77
2023-05-13T21:24:20.736Z,9.71
2023-05-13T21:26:49.143Z,9.68
2023-05-13T21:29:17.369Z,9.63
2023-05-13T21:31:45.955Z,9.58
2023-05-13T21:34:13.000Z,9.55
2023-05-13T21:36:39.650Z,9.52
2023-05-13T21:39:07.666Z,9.46
2023-05-13T21:41:34.407Z,9.39
2023-05-13T21:44:01.107Z,9.29
2023-05-13T21:46:28.040Z,9.25
2023-05-13T21:48:54.706Z,9.22
2023-05-13T21:51:22.265Z,9.18
2023-05-13T21:53:48.954Z,9.15
2023-05-13T21:56:15.756Z,9.14
2023-05-13T21:58:42.349Z,9.11
2023-05-13T22:01:09.162Z,9.07
2023-05-13T22:03:35.913Z,9.02
2023-05-13T22:06:05.310Z,8.98
2023-05-13T22:08:33.001Z,8.90
2023-05-13T22:11:01.454Z,8.85
2023-05-13T22:13:28.232Z,8.76
2023-05-13T22:15:57.396Z,8.69
2023-05-13T22:18:24.512Z,8.65
2023-05-13T22:20:51.473Z,8.64
2023-05-13T22:23:18.169Z,8.61
2023-05-13T22:25:45.174Z,8.58
2023-05-13T22:28:11.799Z,8.54
2023-05-13T22:30:40.108Z,8.51
2023-05-13T22:33:07.118Z,8.49
2023-05-13T22:35:36.609Z,8.48
2023-05-13T22:38:05.801Z,8.47
2023-05-13T22:40:32.606Z,8.44
2023-05-13T22:42:59.324Z,8.42
2023-05-13T22:45:26.063Z,8.41
2023-05-13T22:47:52.720Z,8.38
2023-05-13T22:50:19.596Z,8.37
2023-05-13T22:52:46.608Z,8.35
2023-05-13T22:55:13.319Z,8.33
2023-05-13T22:57:39.965Z,8.32
2023-05-13T23:00:07.238Z,8.27
2023-05-13T23:02:33.776Z,8.21
2023-05-13T23:05:00.433Z,8.17
2023-05-13T23:07:26.974Z,8.11
2023-05-13T23:09:53.496Z,8.08
2023-05-13T23:12:20.057Z,8.04
2023-05-13T23:14:47.815Z,8.01
2023-05-13T23:17:14.459Z,7.99
2023-05-13T23:19:41.118Z,7.98
2023-05-13T23:22:07.680Z,7.96
2023-05-13T23:24:34.194Z,7.93
2023-05-13T23:27:00.769Z,7.92
2023-05-13T23:29:27.647Z,7.88
2023-05-13T23:31:55.687Z,7.85
2023-05-13T23:34:22.285Z,7.85
2023-05-13T23:36:48.867Z,7.84
2023-05-13T23:39:15.387Z,7.83
2023-05-13T23:41:42.756Z,7.81
2023-05-13T23:44:12.024Z,7.76
2023-05-13T23:46:38.552Z,7.71
2023-05-13T23:49:05.121Z,7.68
2023-05-13T23:51:32.359Z,7.64
2023-05-13T23:53:59.800Z,7.63
2023-05-13T23:56:26.462Z,7.61
2023-05-13T23:58:53.068Z,7.60
